Time;durP1;ratioP1;P1;durP2;ratioP2;P2;SDS_P1;SDS_P2;PMS_P1;PMS_P2;Temp;Humidity;BMP_temperature;BMP_pressure;BME280_temperature;BME280_humidity;BME280_pressure;Samples;Min_cycle;Max_cycle;Signal;HPM_P1;HPM_P2
2021/06/02 00:02:01;;;;;;;2.30;1.10;;;23.20;76.40;;;;;;5054821;28;20021;-62
2021/06/02 00:04:29;;;;;;;2.13;1.27;;;23.00;54.50;;;;;;5054344;28;20045;-62
2021/06/02 00:06:57;;;;;;;2.83;1.35;;;23.10;54.20;;;;;;5054424;28;20402;-62
2021/06/02 00:09:24;;;;;;;1.20;1.10;;;23.10;54.80;;;;;;5053774;28;20383;-62
2021/06/02 00:11:50;;;;;;;3.20;1.67;;;23.00;54.50;;;;;;5054511;28;20247;-63
2021/06/02 00:14:18;;;;;;;1.65;1.50;;;23.30;54.80;;;;;;5053082;28;20024;-62
2021/06/02 00:16:44;;;;;;;1.20;1.10;;;23.10;54.70;;;;;;5054212;28;20030;-62
2021/06/02 00:19:10;;;;;;;1.52;1.42;;;23.00;54.70;;;;;;5054452;28;20472;-62
2021/06/02 00:21:36;;;;;;;2.72;1.38;;;23.00;54.50;;;;;;5054346;28;20021;-62
2021/06/02 00:24:01;;;;;;;1.67;1.00;;;23.00;54.90;;;;;;5052861;28;20106;-62
2021/06/02 00:26:32;;;;;;;2.00;1.27;;;23.00;54.60;;;;;;5052979;28;20182;-61
2021/06/02 00:28:58;;;;;;;2.85;1.35;;;23.00;54.50;;;;;;5054196;28;20051;-61
2021/06/02 00:31:24;;;;;;;2.00;1.48;;;23.10;54.80;;;;;;5053739;28;20052;-61
2021/06/02 00:33:49;;;;;;;2.35;1.30;;;23.30;54.40;;;;;;5053777;28;20032;-61
2021/06/02 00:36:17;;;;;;;1.73;1.20;;;23.00;54.70;;;;;;5053595;28;20061;-62
2021/06/02 00:38:44;;;;;;;1.65;1.33;;;23.40;54.80;;;;;;5053621;28;20029;-61
2021/06/02 00:41:11;;;;;;;1.35;1.25;;;23.00;54.40;;;;;;5053816;28;20029;-62
2021/06/02 00:43:37;;;;;;;1.45;1.35;;;23.40;54.50;;;;;;5053721;28;20033;-62
2021/06/02 00:46:02;;;;;;;1.92;1.30;;;23.00;54.60;;;;;;5052247;28;20498;-62
2021/06/02 00:48:28;;;;;;;1.40;1.30;;;23.00;54.30;;;;;;5053713;28;20032;-62
2021/06/02 00:50:53;;;;;;;1.65;1.33;;;23.00;54.30;;;;;;5052087;28;20021;-61
2021/06/02 00:53:20;;;;;;;1.35;1.25;;;22.90;54.40;;;;;;5053277;28;20017;-61
2021/06/02 00:55:46;;;;;;;1.02;0.93;;;;;;;;;;5053293;28;20033;-62
2021/06/02 00:58:37;;;;;;;1.75;1.17;;;22.90;54.20;;;;;;5053458;28;20048;-62
2021/06/02 01:01:03;;;;;;;1.17;1.08;;;22.90;54.20;;;;;;5053260;28;20023;-62
2021/06/02 01:03:34;;;;;;;3.30;1.40;;;22.90;54.70;;;;;;5052850;28;20453;-61
2021/06/02 01:06:00;;;;;;;1.50;1.40;;;22.90;54.50;;;;;;5053189;28;20033;-62
2021/06/02 01:08:30;;;;;;;1.42;1.25;;;22.90;54.50;;;;;;5053100;28;20029;-62
2021/06/02 01:10:56;;;;;;;1.40;1.27;;;22.90;54.20;;;;;;5053242;28;20049;-62
2021/06/02 01:13:22;;;;;;;1.25;1.15;;;22.90;54.40;;;;;;5053211;28;20025;-62
2021/06/02 01:15:51;;;;;;;1.23;1.13;;;22.90;54.90;;;;;;5051669;28;20021;-62
2021/06/02 01:18:18;;;;;;;1.40;1.30;;;22.90;55.00;;;;;;5052761;28;20079;-62
2021/06/02 01:20:44;;;;;;;1.20;1.10;;;22.90;54.50;;;;;;5052291;28;20021;-62
2021/06/02 01:23:12;;;;;;;1.50;1.40;;;22.90;54.50;;;;;;5052705;28;20025;-62
2021/06/02 01:25:38;;;;;;;2.30;1.25;;;22.80;54.10;;;;;;5053064;28;20017;-61
2021/06/02 01:28:05;;;;;;;2.50;1.35;;;23.10;54.60;;;;;;5053030;28;20060;-62
2021/06/02 01:30:31;;;;;;;2.25;1.20;;;22.80;54.50;;;;;;5053023;28;20440;-62
2021/06/02 01:32:57;;;;;;;1.95;1.70;;;22.80;54.50;;;;;;5052958;28;20029;-62
2021/06/02 01:35:34;;;;;;;1.33;1.17;;;22.80;54.10;;;;;;5052634;28;20021;-62
2021/06/02 01:38:15;;;;;;;1.63;1.50;;;23.20;54.50;;;;;;5051320;28;20021;-62
2021/06/02 01:40:58;;;;;;;1.60;1.50;;;22.80;54.30;;;;;;5052933;28;20021;-61
2021/06/02 01:43:32;;;;;;;1.60;1.50;;;22.80;54.10;;;;;;5052795;28;20029;-61
2021/06/02 01:46:28;;;;;;;1.48;1.33;;;22.80;54.10;;;;;;5051208;28;20578;-61
2021/06/02 01:49:21;;;;;;;4.10;1.40;;;22.80;54.00;;;;;;5052533;28;20021;-61
2021/06/02 01:52:17;;;;;;;1.27;1.17;;;22.80;54.10;;;;;;5052466;28;20353;-61
2021/06/02 01:55:05;;;;;;;1.60;1.20;;;22.80;54.10;;;;;;5052468;28;20468;-61
2021/06/02 01:57:40;;;;;;;1.40;1.30;;;22.80;54.10;;;;;;5052649;28;20032;-62
2021/06/02 02:00:28;;;;;;;3.40;1.88;;;22.80;54.10;;;;;;5051122;28;20039;-62
2021/06/02 02:03:22;;;;;;;1.80;1.50;;;22.80;54.10;;;;;;5052593;28;20039;-61
2021/06/02 02:06:20;;;;;;;3.95;1.58;;;22.80;54.90;;;;;;5052617;28;20048;-62
2021/06/02 02:09:04;;;;;;;1.52;1.30;;;22.80;54.10;;;;;;5052590;28;20428;-62
2021/06/02 02:11:34;;;;;;;2.13;1.50;;;23.00;54.30;;;;;;5052508;28;20039;-62
2021/06/02 02:14:09;;;;;;;2.38;1.40;;;22.90;54.40;;;;;;5052538;28;20380;-62
2021/06/02 02:16:49;;;;;;;1.95;1.60;;;22.80;54.20;;;;;;5052567;28;20029;-62
2021/06/02 02:19:30;;;;;;;1.45;1.27;;;22.70;54.10;;;;;;5052510;28;20064;-62
2021/06/02 02:22:14;;;;;;;2.22;1.48;;;22.70;54.30;;;;;;5052129;28;20032;-62
2021/06/02 02:24:50;;;;;;;1.70;1.55;;;22.70;54.40;;;;;;5052195;28;20033;-62
2021/06/02 02:27:30;;;;;;;2.15;1.80;;;22.70;54.20;;;;;;5052362;28;20021;-62
2021/06/02 02:30:04;;;;;;;2.50;1.77;;;22.70;54.40;;;;;;5052196;28;20040;-61
2021/06/02 02:32:54;;;;;;;3.85;1.75;;;22.70;54.30;;;;;;5055445;28;20488;-61
2021/06/02 02:35:34;;;;;;;1.80;1.70;;;22.70;54.40;;;;;;5056009;28;20479;-61
2021/06/02 02:38:24;;;;;;;1.42;1.25;;;22.70;54.30;;;;;;5056219;28;20025;-61
2021/06/02 02:41:12;;;;;;;1.87;1.70;;;22.70;54.40;;;;;;5055934;28;20021;-61
2021/06/02 02:43:55;;;;;;;1.75;1.60;;;22.70;55.00;;;;;;5056055;28;20063;-62
2021/06/02 02:46:43;;;;;;;1.90;1.77;;;22.70;54.60;;;;;;5056097;28;20021;-61
2021/06/02 02:49:27;;;;;;;1.80;1.70;;;22.70;54.50;;;;;;5055776;28;20035;-62
2021/06/02 02:52:06;;;;;;;2.70;1.58;;;22.70;54.50;;;;;;5056246;28;20368;-62
2021/06/02 02:54:57;;;;;;;1.70;1.60;;;22.90;54.60;;;;;;5055596;28;20487;-61
2021/06/02 02:57:46;;;;;;;1.63;1.40;;;22.70;54.50;;;;;;5055783;28;20060;-62
2021/06/02 03:00:19;;;;;;;2.72;1.42;;;22.60;54.50;;;;;;5055873;28;20055;-61
2021/06/02 03:03:00;;;;;;;1.42;1.33;;;22.60;54.60;;;;;;5055668;28;20029;-61
2021/06/02 03:05:31;;;;;;;2.05;1.33;;;22.60;54.70;;;;;;5055356;28;20057;-62
2021/06/02 03:08:09;;;;;;;2.63;1.73;;;23.00;54.90;;;;;;5055419;28;20096;-62
2021/06/02 03:10:38;;;;;;;2.10;1.52;;;22.60;54.60;;;;;;5055644;28;20033;-61
2021/06/02 03:13:34;;;;;;;3.15;2.15;;;22.60;54.70;;;;;;5055263;28;20033;-62
2021/06/02 03:16:08;;;;;;;1.80;1.70;;;22.60;54.70;;;;;;5037476;28;20116;-62
2021/06/02 03:18:46;;;;;;;2.97;1.58;;;22.60;54.70;;;;;;5055181;28;20490;-62
2021/06/02 03:21:33;;;;;;;3.08;1.80;;;22.60;54.70;;;;;;5055139;28;20515;-62
2021/06/02 03:24:09;;;;;;;3.03;2.17;;;22.60;54.80;;;;;;5055140;28;20484;-61
2021/06/02 03:26:40;;;;;;;2.97;1.80;;;22.60;54.90;;;;;;5055007;28;20452;-61
2021/06/02 03:29:14;;;;;;;3.78;2.05;;;22.60;54.90;;;;;;5055031;28;20017;-62
2021/06/02 03:31:55;;;;;;;2.88;1.90;;;22.60;54.90;;;;;;5055139;28;20021;-62
2021/06/02 03:34:26;;;;;;;1.85;1.73;;;22.50;54.90;;;;;;5054868;28;20060;-62
2021/06/02 03:37:14;;;;;;;3.30;1.50;;;22.50;54.90;;;;;;5055055;28;20029;-62
2021/06/02 03:40:01;;;;;;;1.83;1.52;;;22.50;54.90;;;;;;5054799;28;20029;-61
2021/06/02 03:42:52;;;;;;;2.97;2.03;;;22.50;55.00;;;;;;5053622;28;20025;-62
2021/06/02 03:45:32;;;;;;;2.88;2.00;;;22.50;54.90;;;;;;5053434;28;20033;-62
2021/06/02 03:48:19;;;;;;;2.00;1.90;;;22.50;55.00;;;;;;5054887;28;20409;-61
2021/06/02 03:50:53;;;;;;;1.88;1.77;;;22.50;54.90;;;;;;5054569;28;20480;-61
2021/06/02 03:53:51;;;;;;;1.90;1.80;;;22.50;55.00;;;;;;5054795;28;20025;-61
2021/06/02 03:56:29;;;;;;;2.30;1.88;;;22.50;55.70;;;;;;5054421;28;20472;-62
2021/06/02 03:59:39;;;;;;;2.63;2.10;;;22.50;55.10;;;;;;5054399;28;20439;-62
2021/06/02 04:02:33;;;;;;;1.95;1.70;;;22.50;55.20;;;;;;5054419;28;20029;-61
2021/06/02 04:05:24;;;;;;;1.65;1.52;;;22.50;55.10;;;;;;5053966;28;20109;-61
2021/06/02 04:08:11;;;;;;;2.00;1.90;;;22.50;55.10;;;;;;5054525;28;20033;-61
2021/06/02 04:10:58;;;;;;;5.13;2.58;;;22.50;55.20;;;;;;5054188;28;20032;-62
2021/06/02 04:13:44;;;;;;;2.90;1.70;;;22.50;55.10;;;;;;5054409;28;20029;-62
2021/06/02 04:16:13;;;;;;;2.17;2.00;;;22.50;55.20;;;;;;5054066;28;20484;-61
2021/06/02 04:18:41;;;;;;;2.28;2.08;;;22.50;55.30;;;;;;5054039;28;20037;-61
2021/06/02 04:21:07;;;;;;;2.28;2.10;;;22.40;55.30;;;;;;5054210;28;20112;-61
2021/06/02 04:23:37;;;;;;;2.55;2.20;;;22.40;55.30;;;;;;5053835;28;20524;-61
2021/06/02 04:26:03;;;;;;;2.63;2.03;;;22.50;55.30;;;;;;5054142;28;20025;-61
2021/06/02 04:28:33;;;;;;;2.90;2.53;;;22.40;55.30;;;;;;5053772;28;20274;-61
2021/06/02 04:31:12;;;;;;;2.80;2.00;;;22.50;55.30;;;;;;5054077;28;20033;-62
2021/06/02 04:33:40;;;;;;;2.53;2.33;;;22.50;55.40;;;;;;5053714;28;20021;-62
2021/06/02 04:36:08;;;;;;;2.80;2.00;;;22.40;55.30;;;;;;5052544;28;20060;-62
2021/06/02 04:38:34;;;;;;;2.85;2.38;;;22.40;55.40;;;;;;5054027;28;20028;-61
2021/06/02 04:41:05;;;;;;;4.03;2.50;;;22.50;55.40;;;;;;5054017;28;20052;-61
2021/06/02 04:43:33;;;;;;;2.22;2.03;;;22.40;55.40;;;;;;5052387;28;20029;-62
2021/06/02 04:46:01;;;;;;;3.63;2.22;;;22.40;55.50;;;;;;5053429;28;20021;-61
2021/06/02 04:48:27;;;;;;;2.40;2.20;;;22.80;55.70;;;;;;5053765;28;20021;-62
2021/06/02 04:51:10;;;;;;;2.45;2.17;;;22.50;55.70;;;;;;5052146;28;20024;-61
2021/06/02 04:54:15;;;;;;;3.30;2.60;;;22.40;55.70;;;;;;5053189;28;20028;-61
2021/06/02 04:56:58;;;;;;;2.60;2.40;;;22.40;55.90;;;;;;5053242;28;20025;-61
2021/06/02 04:59:26;;;;;;;3.97;1.80;;;22.40;55.80;;;;;;5053557;28;20025;-61
2021/06/02 05:02:10;;;;;;;2.20;2.00;;;22.60;56.00;;;;;;5053169;28;20021;-61
2021/06/02 05:05:14;;;;;;;2.63;2.20;;;22.40;56.00;;;;;;5051636;28;20052;-62
2021/06/02 05:08:05;;;;;;;2.70;2.38;;;22.40;56.10;;;;;;5053197;28;20028;-59
2021/06/02 05:11:06;;;;;;;2.55;2.33;;;22.40;55.50;;;;;;5053035;28;20044;-59
2021/06/02 05:13:56;;;;;;;4.40;2.38;;;22.40;55.60;;;;;;5053318;28;20025;-61
2021/06/02 05:16:41;;;;;;;;;;;22.40;56.70;;;;;;5053430;28;20482;-61
2021/06/02 05:22:42;;;;;;;2.15;1.95;;;22.40;56.80;;;;;;5053194;28;20036;-61
2021/06/02 05:25:32;;;;;;;2.43;2.23;;;22.50;56.50;;;;;;5052890;28;20112;-60
2021/06/02 05:28:16;;;;;;;;;;;22.40;56.60;;;;;;5053563;28;20106;-61
2021/06/02 05:31:17;;;;;;;2.35;2.15;;;22.40;56.70;;;;;;5052506;28;19904;-61
2021/06/02 05:34:01;;;;;;;2.50;2.30;;;22.40;56.90;;;;;;5049547;28;20029;-61
2021/06/02 05:36:54;;;;;;;3.45;2.20;;;22.40;57.20;;;;;;5052688;28;20128;-60
2021/06/02 05:39:32;;;;;;;2.10;1.90;;;22.40;57.20;;;;;;5052681;28;20056;-61
2021/06/02 05:42:19;;;;;;;3.00;2.40;;;22.40;57.20;;;;;;5052742;28;20021;-61
2021/06/02 05:45:29;;;;;;;4.10;2.30;;;22.40;57.10;;;;;;5052533;28;20618;-61
2021/06/02 05:48:35;;;;;;;3.90;2.30;;;22.70;57.20;;;;;;5052978;28;20036;-61
2021/06/02 05:51:39;;;;;;;3.90;2.40;;;22.40;57.00;;;;;;5022403;28;20025;-61
2021/06/02 05:54:19;;;;;;;1.98;1.88;;;22.40;57.10;;;;;;5052402;28;20033;-61
2021/06/02 05:57:22;;;;;;;2.42;2.22;;;22.40;57.10;;;;;;5052388;28;20032;-61
2021/06/02 06:00:02;;;;;;;2.75;2.05;;;22.40;57.10;;;;;;5052690;28;20028;-59
2021/06/02 06:02:53;;;;;;;4.03;1.98;;;22.40;57.40;;;;;;5052427;28;20017;-59
2021/06/02 06:05:51;;;;;;;6.30;2.38;;;22.40;57.40;;;;;;5052209;28;20056;-59
2021/06/02 06:08:19;;;;;;;5.97;2.70;;;22.50;57.80;;;;;;5056761;28;20383;-59
2021/06/02 06:11:16;;;;;;;6.63;2.55;;;22.50;57.90;;;;;;5056491;28;20032;-60
2021/06/02 06:14:06;;;;;;;4.88;2.45;;;22.40;57.70;;;;;;5056498;28;20361;-60
2021/06/02 06:17:09;;;;;;;5.68;2.88;;;22.50;57.70;;;;;;5056604;28;20029;-59
2021/06/02 06:20:03;;;;;;;6.68;2.60;;;22.60;57.50;;;;;;5056654;28;20033;-59
2021/06/02 06:22:46;;;;;;;3.30;2.58;;;22.50;57.50;;;;;;5056548;28;20029;-60
2021/06/02 06:25:43;;;;;;;4.55;2.83;;;22.50;57.50;;;;;;5056266;28;20041;-60
2021/06/02 06:28:36;;;;;;;4.03;2.40;;;22.50;57.40;;;;;;5055390;28;20032;-60
2021/06/02 06:31:06;;;;;;;4.13;2.33;;;22.60;57.50;;;;;;5029241;28;20435;-59
2021/06/02 06:33:34;;;;;;;2.72;2.10;;;22.60;57.50;;;;;;5056132;28;20112;-60
2021/06/02 06:36:01;;;;;;;4.80;2.30;;;22.50;57.40;;;;;;5056089;28;20021;-60
2021/06/02 06:38:45;;;;;;;4.45;2.38;;;22.80;57.40;;;;;;5056238;28;20487;-59
2021/06/02 06:41:13;;;;;;;4.88;2.05;;;22.70;57.20;;;;;;5055981;28;20057;-58
2021/06/02 06:43:41;;;;;;;6.25;2.92;;;22.70;57.10;;;;;;5055765;28;20480;-59
2021/06/02 06:46:08;;;;;;;2.97;2.33;;;22.50;57.00;;;;;;5055652;28;20017;-59
2021/06/02 06:48:35;;;;;;;3.22;2.92;;;22.50;57.00;;;;;;5055697;28;20553;-60
2021/06/02 06:51:02;;;;;;;5.45;2.70;;;22.50;57.00;;;;;;5055969;28;20143;-60
2021/06/02 06:53:29;;;;;;;3.30;2.53;;;22.50;57.60;;;;;;5055517;28;20131;-60
2021/06/02 06:55:55;;;;;;;3.67;2.75;;;22.50;57.00;;;;;;5055480;28;20036;-60
2021/06/02 06:58:22;;;;;;;3.92;2.50;;;22.50;57.10;;;;;;5055835;28;20017;-60
2021/06/02 07:00:48;;;;;;;6.20;2.50;;;22.80;57.40;;;;;;5055783;28;20024;-60
2021/06/02 07:03:15;;;;;;;2.83;1.98;;;22.50;57.20;;;;;;5055145;28;20383;-60
2021/06/02 07:05:42;;;;;;;3.35;2.88;;;22.50;57.30;;;;;;5055290;28;20388;-60
2021/06/02 07:08:09;;;;;;;3.55;2.45;;;22.60;57.30;;;;;;5055755;28;20105;-60
2021/06/02 07:10:35;;;;;;;4.22;3.30;;;22.50;57.20;;;;;;5055390;28;20061;-60
2021/06/02 07:13:01;;;;;;;2.80;2.50;;;22.50;57.10;;;;;;5054149;28;20048;-60
2021/06/02 07:15:29;;;;;;;5.82;3.55;;;22.50;57.10;;;;;;5054048;28;20029;-60
2021/06/02 07:17:56;;;;;;;3.30;2.95;;;22.50;57.20;;;;;;5053821;28;20099;-59
2021/06/02 07:20:25;;;;;;;3.85;2.45;;;22.60;57.30;;;;;;5055380;28;20035;-60
2021/06/02 07:22:52;;;;;;;4.07;3.00;;;22.60;57.30;;;;;;5055023;28;20021;-60
2021/06/02 07:25:20;;;;;;;4.05;2.60;;;22.80;57.30;;;;;;5055014;28;20021;-59
2021/06/02 07:27:47;;;;;;;5.28;2.88;;;22.50;57.30;;;;;;5055104;28;20028;-60
2021/06/02 07:30:15;;;;;;;3.95;2.80;;;22.60;57.30;;;;;;5053616;28;20123;-60
2021/06/02 07:32:41;;;;;;;4.35;2.53;;;22.60;57.30;;;;;;5053571;28;20048;-58
2021/06/02 07:35:07;;;;;;;4.13;2.88;;;22.90;57.50;;;;;;5055059;28;20531;-58
2021/06/02 07:37:34;;;;;;;3.15;2.65;;;22.60;57.40;;;;;;5054777;28;20060;-59
2021/06/02 07:40:00;;;;;;;4.85;2.70;;;22.60;57.50;;;;;;5054672;28;20081;-59
2021/06/02 07:42:26;;;;;;;5.95;2.83;;;22.60;57.50;;;;;;5054934;28;20478;-59
2021/06/02 07:44:52;;;;;;;3.95;2.63;;;22.90;57.70;;;;;;5054554;28;20127;-59
2021/06/02 07:47:17;;;;;;;3.25;2.47;;;22.70;57.50;;;;;;5054363;28;20144;-59
2021/06/02 07:49:43;;;;;;;5.10;2.72;;;22.60;57.50;;;;;;5053174;28;20028;-58
2021/06/02 07:52:09;;;;;;;4.35;2.25;;;22.60;57.50;;;;;;5054238;28;20021;-59
2021/06/02 07:54:34;;;;;;;4.45;2.85;;;22.60;57.40;;;;;;5054528;28;20033;-59
2021/06/02 07:57:00;;;;;;;3.65;2.67;;;22.70;57.50;;;;;;5054489;28;20163;-58
2021/06/02 07:59:25;;;;;;;3.03;2.42;;;22.60;57.40;;;;;;5053463;28;20371;-60
2021/06/02 08:01:51;;;;;;;4.22;2.50;;;22.60;57.40;;;;;;5054470;28;20025;-59
2021/06/02 08:04:17;;;;;;;3.30;2.40;;;22.60;57.40;;;;;;5054158;28;20504;-59
2021/06/02 08:06:46;;;;;;;2.47;2.28;;;22.70;57.50;;;;;;5054380;28;20099;-59
2021/06/02 08:09:17;;;;;;;6.95;2.60;;;22.70;57.40;;;;;;5054396;28;20098;-59
2021/06/02 08:11:46;;;;;;;4.43;2.47;;;23.40;57.60;;;;;;5054160;28;20059;-59
2021/06/02 08:14:12;;;;;;;2.95;2.58;;;22.70;57.20;;;;;;5054454;28;20488;-59
2021/06/02 08:16:38;;;;;;;4.03;2.58;;;22.70;57.20;;;;;;5054126;28;20017;-59
2021/06/02 08:19:04;;;;;;;3.92;2.50;;;23.00;57.50;;;;;;5054029;28;20025;-59
2021/06/02 08:21:30;;;;;;;4.57;2.75;;;22.80;57.40;;;;;;5053998;28;20029;-59
2021/06/02 08:23:55;;;;;;;2.45;2.25;;;23.10;57.50;;;;;;5052746;28;20503;-59
2021/06/02 08:26:21;;;;;;;2.97;2.42;;;22.80;57.40;;;;;;5054065;28;20096;-59
2021/06/02 08:28:47;;;;;;;3.40;2.70;;;22.80;57.30;;;;;;5053357;28;20475;-59
2021/06/02 08:31:12;;;;;;;5.95;2.53;;;22.50;57.00;;;;;;5053615;28;20067;-58
2021/06/02 08:33:38;;;;;;;2.95;2.35;;;22.70;57.10;;;;;;5053610;28;20029;-59
2021/06/02 08:36:04;;;;;;;2.72;2.25;;;22.70;57.00;;;;;;5052409;28;20013;-59
2021/06/02 08:38:29;;;;;;;3.40;2.60;;;22.90;57.20;;;;;;5035774;28;20442;-59
2021/06/02 08:40:55;;;;;;;3.53;2.30;;;22.90;57.10;;;;;;5052455;28;20020;-59
2021/06/02 08:43:21;;;;;;;4.50;2.30;;;22.90;57.10;;;;;;5053593;28;20051;-59
2021/06/02 08:45:54;;;;;;;2.97;2.10;;;22.70;57.10;;;;;;5053326;28;20016;-59
2021/06/02 08:48:19;;;;;;;5.25;2.40;;;23.30;57.40;;;;;;5053496;28;20029;-60
2021/06/02 08:50:45;;;;;;;2.13;1.80;;;23.40;57.40;;;;;;5053300;28;20108;-59
2021/06/02 08:53:15;;;;;;;4.97;2.30;;;23.20;57.30;;;;;;5053400;28;20456;-59
2021/06/02 08:55:44;;;;;;;3.35;2.30;;;23.00;57.10;;;;;;5053486;28;20027;-59
2021/06/02 08:58:11;;;;;;;2.92;2.58;;;23.00;57.10;;;;;;5053450;28;20099;-59
2021/06/02 09:00:37;;;;;;;2.47;2.28;;;22.70;56.80;;;;;;5053437;28;20071;-59
2021/06/02 09:03:02;;;;;;;6.57;3.20;;;23.10;57.00;;;;;;5053026;28;20468;-59
2021/06/02 09:05:30;;;;;;;6.40;2.45;;;23.10;56.80;;;;;;5052995;28;20487;-59
2021/06/02 09:07:56;;;;;;;3.33;2.40;;;22.90;55.50;;;;;;5053404;28;20028;-59
2021/06/02 09:10:23;;;;;;;2.22;1.98;;;23.20;55.70;;;;;;5053487;28;20055;-59
2021/06/02 09:12:59;;;;;;;4.53;2.45;;;23.20;55.90;;;;;;5053078;28;20057;-59
2021/06/02 09:15:31;;;;;;;2.88;2.10;;;23.20;56.10;;;;;;5053370;28;20033;-59
2021/06/02 09:17:59;;;;;;;6.43;2.30;;;23.30;56.00;;;;;;5052937;28;20511;-59
2021/06/02 09:20:42;;;;;;;2.28;2.13;;;23.40;56.00;;;;;;5052886;28;20025;-59
2021/06/02 09:23:31;;;;;;;3.75;2.35;;;23.40;55.90;;;;;;5052874;28;20028;-59
2021/06/02 09:25:58;;;;;;;2.20;2.00;;;23.40;55.80;;;;;;5051550;28;20033;-60
2021/06/02 09:28:50;;;;;;;2.15;1.90;;;23.40;55.80;;;;;;5052892;28;20024;-60
2021/06/02 09:31:38;;;;;;;2.78;2.45;;;23.50;55.90;;;;;;5052693;28;20021;-60
2021/06/02 09:34:19;;;;;;;4.18;2.03;;;23.60;56.10;;;;;;5053013;28;20024;-60
2021/06/02 09:36:48;;;;;;;2.72;2.00;;;23.60;56.00;;;;;;5053102;28;20360;-59
2021/06/02 09:39:16;;;;;;;6.32;2.42;;;23.40;55.80;;;;;;5052738;28;20029;-60
2021/06/02 09:41:51;;;;;;;3.85;2.22;;;23.50;55.80;;;;;;5052296;28;20016;-60
2021/06/02 09:44:16;;;;;;;3.03;2.10;;;23.50;55.70;;;;;;5052515;28;20036;-60
2021/06/02 09:47:14;;;;;;;3.10;2.10;;;23.60;55.70;;;;;;5052724;28;20025;-62
2021/06/02 09:49:55;;;;;;;2.75;1.90;;;23.90;55.70;;;;;;5018849;28;20032;-60
2021/06/02 09:52:46;;;;;;;3.10;1.98;;;23.90;55.90;;;;;;5052826;28;20029;-60
2021/06/02 09:55:18;;;;;;;4.55;2.22;;;23.90;56.00;;;;;;5052839;28;20078;-60
2021/06/02 09:57:44;;;;;;;7.63;2.20;;;24.00;56.00;;;;;;5052742;28;20025;-60
2021/06/02 10:00:11;;;;;;;5.38;2.40;;;23.80;55.70;;;;;;5052765;28;20083;-60
2021/06/02 10:02:37;;;;;;;4.18;2.10;;;24.00;55.80;;;;;;5052387;28;20529;-60
2021/06/02 10:05:08;;;;;;;3.45;1.85;;;24.00;55.60;;;;;;5052196;28;20037;-60
2021/06/02 10:07:42;;;;;;;4.00;2.20;;;24.00;55.40;;;;;;5050996;28;20037;-59
2021/06/02 10:10:20;;;;;;;3.63;1.95;;;23.80;55.20;;;;;;5052372;28;20495;-59
2021/06/02 10:13:02;;;;;;;2.28;2.08;;;24.10;55.10;;;;;;5052894;28;20376;-60
2021/06/02 10:15:40;;;;;;;4.93;2.17;;;24.10;54.90;;;;;;5052514;28;20071;-60
2021/06/02 10:18:24;;;;;;;3.72;1.92;;;24.10;54.80;;;;;;5052278;28;20057;-60
2021/06/02 10:20:57;;;;;;;2.92;2.00;;;24.20;54.70;;;;;;5052391;28;20017;-59
2021/06/02 10:23:25;;;;;;;4.25;2.35;;;24.20;54.70;;;;;;5052232;28;20040;-60
2021/06/02 10:25:52;;;;;;;2.58;1.98;;;24.10;54.60;;;;;;5052328;28;20029;-60
2021/06/02 10:28:18;;;;;;;3.45;2.20;;;24.50;54.80;;;;;;5052293;28;20027;-60
2021/06/02 10:30:46;;;;;;;2.47;2.20;;;24.30;54.70;;;;;;5050653;28;20510;-59
2021/06/02 10:33:12;;;;;;;3.13;2.10;;;24.30;54.70;;;;;;5051922;28;20017;-59
2021/06/02 10:35:38;;;;;;;3.45;2.13;;;24.30;54.70;;;;;;5052024;28;20444;-60
2021/06/02 10:38:05;;;;;;;4.35;2.08;;;24.20;54.50;;;;;;5052443;28;20092;-61
2021/06/02 10:40:32;;;;;;;4.18;2.00;;;24.40;54.60;;;;;;5052041;28;20064;-60
2021/06/02 10:43:11;;;;;;;2.47;1.95;;;24.40;54.50;;;;;;5052182;28;20050;-60
2021/06/02 10:45:52;;;;;;;3.90;1.85;;;24.60;54.60;;;;;;5052352;28;20031;-60
2021/06/02 10:48:37;;;;;;;2.28;1.70;;;24.50;54.70;;;;;;5052042;28;20032;-60
2021/06/02 10:51:03;;;;;;;3.13;2.13;;;24.50;54.10;;;;;;5050689;28;20494;-60
2021/06/02 10:53:29;;;;;;;4.00;1.88;;;24.40;54.00;;;;;;5055201;28;20017;-58
2021/06/02 10:55:58;;;;;;;3.20;2.10;;;24.40;54.00;;;;;;5055814;28;20380;-58
2021/06/02 10:58:34;;;;;;;2.83;1.88;;;24.50;54.00;;;;;;5055840;28;20096;-59
2021/06/02 11:01:20;;;;;;;2.28;1.85;;;24.40;53.90;;;;;;5054472;28;20070;-59
2021/06/02 11:04:08;;;;;;;4.15;2.50;;;24.40;54.20;;;;;;5053995;28;20057;-59
2021/06/02 11:06:39;;;;;;;2.15;1.90;;;24.70;53.50;;;;;;5055526;28;20392;-59
2021/06/02 11:09:05;;;;;;;2.13;1.85;;;24.50;53.30;;;;;;5055791;28;20429;-59
2021/06/02 11:11:36;;;;;;;4.20;2.15;;;24.90;53.50;;;;;;5055423;28;20108;-58
2021/06/02 11:14:25;;;;;;;3.75;1.90;;;24.50;53.20;;;;;;5055390;28;20033;-59
2021/06/02 11:17:08;;;;;;;1.70;1.60;;;24.50;53.10;;;;;;5054111;28;20055;-59
2021/06/02 11:19:41;;;;;;;2.75;2.00;;;24.50;53.00;;;;;;5055512;28;20329;-59
2021/06/02 11:22:08;;;;;;;3.47;2.03;;;24.50;52.90;;;;;;5055298;28;20021;-59
2021/06/02 11:24:34;;;;;;;2.67;1.85;;;24.60;52.80;;;;;;5055297;28;20029;-59
2021/06/02 11:27:23;;;;;;;3.20;2.00;;;24.70;52.80;;;;;;5055087;28;20025;-59
2021/06/02 11:29:49;;;;;;;4.10;1.90;;;24.80;52.90;;;;;;5047029;28;20036;-59
2021/06/02 11:32:19;;;;;;;3.25;1.98;;;24.60;52.70;;;;;;5055037;28;20025;-59
2021/06/02 11:34:45;;;;;;;;;;;24.60;52.50;;;;;;5055636;28;20112;-59
2021/06/02 11:37:20;;;;;;;3.15;2.08;;;24.70;52.70;;;;;;5055282;28;19932;-59
2021/06/02 11:39:47;;;;;;;1.98;1.55;;;24.70;52.60;;;;;;5055343;28;20025;-59
2021/06/02 11:42:33;;;;;;;1.73;1.63;;;24.90;52.70;;;;;;5055056;28;20066;-59
2021/06/02 11:45:00;;;;;;;3.40;1.70;;;24.70;52.60;;;;;;5054980;28;20036;-59
2021/06/02 11:47:27;;;;;;;2.80;1.90;;;24.70;52.50;;;;;;5054694;28;20017;-59
2021/06/02 11:50:08;;;;;;;3.42;1.75;;;24.90;52.50;;;;;;5054834;28;20388;-59
2021/06/02 11:52:34;;;;;;;2.45;1.80;;;24.70;52.40;;;;;;5054705;28;20017;-59
2021/06/02 11:55:06;;;;;;;2.50;1.90;;;24.70;52.40;;;;;;5054832;28;20418;-59
2021/06/02 11:57:36;;;;;;;3.53;1.92;;;24.70;52.30;;;;;;5053156;28;20029;-59
2021/06/02 12:00:34;;;;;;;2.70;1.70;;;24.70;52.20;;;;;;5054572;28;20041;-59
2021/06/02 12:03:05;;;;;;;2.75;2.35;;;24.70;51.50;;;;;;5042630;28;20025;-59
2021/06/02 12:05:33;;;;;;;2.50;1.80;;;24.70;52.10;;;;;;5053841;28;20081;-59
2021/06/02 12:08:01;;;;;;;2.35;1.73;;;24.70;52.00;;;;;;5054014;28;20476;-59
2021/06/02 12:10:33;;;;;;;2.55;1.92;;;24.70;51.90;;;;;;5054536;28;20075;-59
2021/06/02 12:13:00;;;;;;;1.65;1.55;;;24.70;51.70;;;;;;5054278;28;20025;-59
2021/06/02 12:15:37;;;;;;;3.08;1.60;;;24.50;51.60;;;;;;5054471;28;20071;-59
2021/06/02 12:18:03;;;;;;;2.30;1.65;;;24.80;51.90;;;;;;5054181;28;20078;-58
2021/06/02 12:20:29;;;;;;;2.30;2.08;;;24.70;51.80;;;;;;5054251;28;20024;-59
2021/06/02 12:22:55;;;;;;;2.88;1.60;;;24.70;51.70;;;;;;5054241;28;20535;-58
2021/06/02 12:25:23;;;;;;;3.28;1.58;;;25.00;51.70;;;;;;5053958;28;20072;-59
2021/06/02 12:27:54;;;;;;;2.17;1.90;;;24.70;51.50;;;;;;5054133;28;20024;-59
2021/06/02 12:30:26;;;;;;;3.28;1.70;;;24.80;51.50;;;;;;5054031;28;20025;-59
2021/06/02 12:33:02;;;;;;;1.95;1.75;;;24.80;51.50;;;;;;5053866;28;20491;-59
2021/06/02 12:35:47;;;;;;;1.75;1.58;;;25.40;51.80;;;;;;5053740;28;20021;-59
2021/06/02 12:38:15;;;;;;;3.47;1.90;;;24.80;51.50;;;;;;5053931;28;20047;-59
2021/06/02 12:40:45;;;;;;;1.77;1.60;;;24.80;51.50;;;;;;5053680;28;20021;-59
2021/06/02 12:43:19;;;;;;;1.58;1.48;;;24.80;51.40;;;;;;5053527;28;20021;-59
2021/06/02 12:45:46;;;;;;;3.03;2.00;;;24.80;51.30;;;;;;5053576;28;20029;-59
2021/06/02 12:48:13;;;;;;;2.63;1.35;;;24.50;51.10;;;;;;5053657;28;20025;-59
2021/06/02 12:50:42;;;;;;;4.32;2.22;;;24.60;51.00;;;;;;5052099;28;20075;-59
2021/06/02 12:53:09;;;;;;;1.83;1.52;;;24.80;51.10;;;;;;5053418;28;20028;-59
2021/06/02 12:55:39;;;;;;;1.63;1.40;;;24.80;51.10;;;;;;5052019;28;20036;-59
2021/06/02 12:58:12;;;;;;;2.10;1.37;;;24.80;51.00;;;;;;5053794;28;20100;-59
2021/06/02 13:00:43;;;;;;;1.60;1.50;;;24.80;50.90;;;;;;5053094;28;20283;-59
2021/06/02 13:03:18;;;;;;;2.00;1.60;;;24.80;50.40;;;;;;5053364;28;20017;-60
2021/06/02 13:05:44;;;;;;;2.17;1.70;;;24.80;50.90;;;;;;5052975;28;20124;-59
2021/06/02 13:08:10;;;;;;;1.90;1.80;;;24.80;50.90;;;;;;5053422;28;20371;-60
2021/06/02 13:10:39;;;;;;;1.52;1.42;;;24.90;51.00;;;;;;5053065;28;20127;-59
2021/06/02 13:13:07;;;;;;;1.70;1.60;;;24.80;51.00;;;;;;5053059;28;20032;-60
2021/06/02 13:15:37;;;;;;;1.50;1.40;;;24.80;50.90;;;;;;5052847;28;20017;-60
2021/06/02 13:18:05;;;;;;;2.33;1.45;;;24.80;51.00;;;;;;5052836;28;20386;-59
2021/06/02 13:20:36;;;;;;;3.08;1.70;;;24.80;51.00;;;;;;5052776;28;20021;-59
2021/06/02 13:23:17;;;;;;;1.60;1.50;;;24.80;51.20;;;;;;5051337;28;20036;-59
2021/06/02 13:25:57;;;;;;;2.83;1.73;;;24.80;51.40;;;;;;5053111;28;20037;-59
2021/06/02 13:28:23;;;;;;;3.17;1.70;;;24.80;51.40;;;;;;5052775;28;20023;-60
2021/06/02 13:30:49;;;;;;;2.08;1.60;;;24.80;51.40;;;;;;5052983;28;20025;-60